Huvudsida
METAR-TAF:

METAR-TAF

Flygplatser :

Khajuraho Airport

Khajuraho, Indien

latitud: 24-49-02N, longitud: 79-55-07E, höjd: 222 m

Aktuellt väderrapport

Denna rapport gjordes för 56 minuter sedan, klockan 09:00 UTC
Vind 7 kt från väst/sydväst
Temperatur 44°C
Fuktighet 15%
Tryck 1000 hPa
Sikt: 6000 m
Spridda moln på en höjd av 2500 ft

METAR: VEKO 200900Z 25007KT 6000 SCT025 44/12 Q1000

Tid: 15:26 (09:56 UTC)

Väderprognos

Denna rapport gjordes för 1 timme och 56 minuter sedan, klockan 08:00 UTC
Prognos gäller från 20 kl. 09 UTC till 20 kl. 18 UTC
Vind 8 kt från sydväst
Sikt: 6000 m

TAF: VEKO 200800Z 2009/2018 23008KT 6000 NSC

Aktuella väderrapporter och prognoser från 4000 flygplatser (METAR- och TAF-rapporter).

De tillgängliga stationerna syns som gula och röda prickar på kartan.

För musen över prickarna för att se namnen på stationerna.

Klicka sedan för att få väderrapporter och prognoser.

För att ändra kartan: Klicka på de gröna knapparna med ett svart kors på för att zooma in; den gröna knappen med ett streck på för att zooma ut; eller på de gröna pilarna för angränsande kartor.


METAR-TAF: